sensor_id;sensor_type;location;lat;lon;timestamp;temperature;humidity
5276;DHT22;2661;50.786;12.728;2023-04-12T00:00:39;2.30;99.90
5276;DHT22;2661;50.786;12.728;2023-04-12T00:03:05;2.20;99.90
5276;DHT22;2661;50.786;12.728;2023-04-12T00:05:33;2.20;99.90
5276;DHT22;2661;50.786;12.728;2023-04-12T00:08:00;2.20;99.90
5276;DHT22;2661;50.786;12.728;2023-04-12T00:10:30;2.20;99.90
5276;DHT22;2661;50.786;12.728;2023-04-12T00:12:57;2.20;99.90
5276;DHT22;2661;50.786;12.728;2023-04-12T00:15:23;2.20;99.90
5276;DHT22;2661;50.786;12.728;2023-04-12T00:17:50;2.10;99.90
5276;DHT22;2661;50.786;12.728;2023-04-12T00:20:16;2.10;99.90
5276;DHT22;2661;50.786;12.728;2023-04-12T00:22:43;2.00;99.90
5276;DHT22;2661;50.786;12.728;2023-04-12T00:25:10;2.00;99.90
5276;DHT22;2661;50.786;12.728;2023-04-12T00:27:37;2.00;99.90
5276;DHT22;2661;50.786;12.728;2023-04-12T00:30:03;2.00;99.90
5276;DHT22;2661;50.786;12.728;2023-04-12T00:32:30;1.90;99.90
5276;DHT22;2661;50.786;12.728;2023-04-12T00:34:57;1.90;99.90
5276;DHT22;2661;50.786;12.728;2023-04-12T00:37:23;1.80;99.90
5276;DHT22;2661;50.786;12.728;2023-04-12T00:39:50;1.80;99.90
5276;DHT22;2661;50.786;12.728;2023-04-12T00:42:16;1.70;99.90
5276;DHT22;2661;50.786;12.728;2023-04-12T00:44:43;1.70;99.90
5276;DHT22;2661;50.786;12.728;2023-04-12T00:47:10;1.70;99.90
5276;DHT22;2661;50.786;12.728;2023-04-12T00:49:37;1.70;99.90
5276;DHT22;2661;50.786;12.728;2023-04-12T00:52:06;1.80;99.90
5276;DHT22;2661;50.786;12.728;2023-04-12T00:54:33;1.70;99.90
5276;DHT22;2661;50.786;12.728;2023-04-12T00:57:00;1.80;99.90
5276;DHT22;2661;50.786;12.728;2023-04-12T00:59:27;1.70;99.90
5276;DHT22;2661;50.786;12.728;2023-04-12T01:01:54;1.70;99.90
5276;DHT22;2661;50.786;12.728;2023-04-12T01:04:21;1.70;99.90
5276;DHT22;2661;50.786;12.728;2023-04-12T01:07:24;1.70;99.90
5276;DHT22;2661;50.786;12.728;2023-04-12T01:14:42;1.80;99.90
5276;DHT22;2661;50.786;12.728;2023-04-12T01:17:12;1.80;99.90
5276;DHT22;2661;50.786;12.728;2023-04-12T01:22:28;1.80;99.90
5276;DHT22;2661;50.786;12.728;2023-04-12T01:25:02;1.80;99.90
5276;DHT22;2661;50.786;12.728;2023-04-12T01:27:33;1.70;99.90
5276;DHT22;2661;50.786;12.728;2023-04-12T01:30:04;1.70;99.90
5276;DHT22;2661;50.786;12.728;2023-04-12T01:32:31;1.60;99.90
5276;DHT22;2661;50.786;12.728;2023-04-12T01:34:59;1.60;99.90
5276;DHT22;2661;50.786;12.728;2023-04-12T01:37:28;1.70;99.90
5276;DHT22;2661;50.786;12.728;2023-04-12T01:39:55;1.60;99.90
5276;DHT22;2661;50.786;12.728;2023-04-12T01:42:21;1.60;99.90
5276;DHT22;2661;50.786;12.728;2023-04-12T01:44:49;1.60;99.90
5276;DHT22;2661;50.786;12.728;2023-04-12T01:47:15;1.50;99.90
5276;DHT22;2661;50.786;12.728;2023-04-12T01:50:17;1.50;99.90
5276;DHT22;2661;50.786;12.728;2023-04-12T01:52:30;1.50;99.90
5276;DHT22;2661;50.786;12.728;2023-04-12T01:54:57;1.50;99.90
5276;DHT22;2661;50.786;12.728;2023-04-12T01:57:24;1.60;99.90
5276;DHT22;2661;50.786;12.728;2023-04-12T01:59:52;1.60;99.90
5276;DHT22;2661;50.786;12.728;2023-04-12T02:02:19;1.50;99.90
5276;DHT22;2661;50.786;12.728;2023-04-12T02:04:46;1.40;99.90
5276;DHT22;2661;50.786;12.728;2023-04-12T02:07:13;1.40;99.90
5276;DHT22;2661;50.786;12.728;2023-04-12T02:09:40;1.40;99.90
5276;DHT22;2661;50.786;12.728;2023-04-12T02:12:07;1.40;99.90
5276;DHT22;2661;50.786;12.728;2023-04-12T02:14:34;1.40;99.90
5276;DHT22;2661;50.786;12.728;2023-04-12T02:17:01;1.40;99.90
5276;DHT22;2661;50.786;12.728;2023-04-12T02:19:30;1.40;99.90
5276;DHT22;2661;50.786;12.728;2023-04-12T02:21:57;1.30;99.90
5276;DHT22;2661;50.786;12.728;2023-04-12T02:24:23;1.30;99.90
5276;DHT22;2661;50.786;12.728;2023-04-12T02:26:50;1.40;99.90
5276;DHT22;2661;50.786;12.728;2023-04-12T02:29:17;1.50;99.90
5276;DHT22;2661;50.786;12.728;2023-04-12T02:31:43;1.40;99.90
5276;DHT22;2661;50.786;12.728;2023-04-12T02:34:10;1.40;99.90
5276;DHT22;2661;50.786;12.728;2023-04-12T02:36:38;1.30;99.90
5276;DHT22;2661;50.786;12.728;2023-04-12T02:39:05;1.40;99.90
5276;DHT22;2661;50.786;12.728;2023-04-12T02:41:33;1.30;99.90
5276;DHT22;2661;50.786;12.728;2023-04-12T02:43:59;1.30;99.90
5276;DHT22;2661;50.786;12.728;2023-04-12T02:46:26;1.20;99.90
5276;DHT22;2661;50.786;12.728;2023-04-12T02:48:52;1.30;99.90
5276;DHT22;2661;50.786;12.728;2023-04-12T02:51:19;1.30;99.90
5276;DHT22;2661;50.786;12.728;2023-04-12T02:53:46;1.30;99.90
5276;DHT22;2661;50.786;12.728;2023-04-12T02:56:12;1.20;99.90
5276;DHT22;2661;50.786;12.728;2023-04-12T02:58:39;1.20;99.90
5276;DHT22;2661;50.786;12.728;2023-04-12T03:01:05;1.20;99.90
5276;DHT22;2661;50.786;12.728;2023-04-12T03:03:33;1.20;99.90
5276;DHT22;2661;50.786;12.728;2023-04-12T03:06:01;1.20;99.90
5276;DHT22;2661;50.786;12.728;2023-04-12T03:08:27;1.10;99.90
5276;DHT22;2661;50.786;12.728;2023-04-12T03:10:54;1.10;99.90
5276;DHT22;2661;50.786;12.728;2023-04-12T03:13:21;1.20;99.90
5276;DHT22;2661;50.786;12.728;2023-04-12T03:15:48;1.20;99.90
5276;DHT22;2661;50.786;12.728;2023-04-12T03:18:18;1.10;99.90
5276;DHT22;2661;50.786;12.728;2023-04-12T03:20:46;1.10;99.90
5276;DHT22;2661;50.786;12.728;2023-04-12T03:23:13;1.00;99.90
5276;DHT22;2661;50.786;12.728;2023-04-12T03:25:40;1.00;99.90
5276;DHT22;2661;50.786;12.728;2023-04-12T03:28:07;1.00;99.90
5276;DHT22;2661;50.786;12.728;2023-04-12T03:30:33;1.00;99.90
5276;DHT22;2661;50.786;12.728;2023-04-12T03:33:00;1.00;99.90
5276;DHT22;2661;50.786;12.728;2023-04-12T03:35:27;1.00;99.90
5276;DHT22;2661;50.786;12.728;2023-04-12T03:37:53;1.00;99.90
5276;DHT22;2661;50.786;12.728;2023-04-12T03:40:20;1.00;99.90
5276;DHT22;2661;50.786;12.728;2023-04-12T03:42:46;1.10;99.90
5276;DHT22;2661;50.786;12.728;2023-04-12T03:45:13;1.10;99.90
5276;DHT22;2661;50.786;12.728;2023-04-12T03:47:39;1.10;99.90
5276;DHT22;2661;50.786;12.728;2023-04-12T03:50:07;1.20;99.90
5276;DHT22;2661;50.786;12.728;2023-04-12T03:52:38;1.20;99.90
5276;DHT22;2661;50.786;12.728;2023-04-12T03:55:04;1.20;99.90
5276;DHT22;2661;50.786;12.728;2023-04-12T03:57:33;1.20;99.90
5276;DHT22;2661;50.786;12.728;2023-04-12T04:00:00;1.30;99.90
5276;DHT22;2661;50.786;12.728;2023-04-12T04:02:26;1.30;99.90
5276;DHT22;2661;50.786;12.728;2023-04-12T04:04:53;1.20;99.90
5276;DHT22;2661;50.786;12.728;2023-04-12T04:07:20;1.30;99.90
5276;DHT22;2661;50.786;12.728;2023-04-12T04:09:47;1.50;99.90
5276;DHT22;2661;50.786;12.728;2023-04-12T04:12:15;1.50;99.90
5276;DHT22;2661;50.786;12.728;2023-04-12T04:14:42;1.50;99.90
5276;DHT22;2661;50.786;12.728;2023-04-12T04:17:08;1.50;99.90
5276;DHT22;2661;50.786;12.728;2023-04-12T04:19:35;1.40;99.90
5276;DHT22;2661;50.786;12.728;2023-04-12T04:22:01;1.40;99.90
5276;DHT22;2661;50.786;12.728;2023-04-12T04:24:28;1.40;99.90
5276;DHT22;2661;50.786;12.728;2023-04-12T04:26:55;1.40;99.90
5276;DHT22;2661;50.786;12.728;2023-04-12T04:29:21;1.50;99.90
5276;DHT22;2661;50.786;12.728;2023-04-12T04:31:49;1.50;99.90
5276;DHT22;2661;50.786;12.728;2023-04-12T04:34:16;1.50;99.90
5276;DHT22;2661;50.786;12.728;2023-04-12T04:36:44;1.50;99.90
5276;DHT22;2661;50.786;12.728;2023-04-12T04:39:12;1.70;99.90
5276;DHT22;2661;50.786;12.728;2023-04-12T04:41:38;1.70;99.90
5276;DHT22;2661;50.786;12.728;2023-04-12T04:44:07;1.70;99.90
5276;DHT22;2661;50.786;12.728;2023-04-12T04:46:36;1.70;99.90
5276;DHT22;2661;50.786;12.728;2023-04-12T04:49:03;1.70;99.90
5276;DHT22;2661;50.786;12.728;2023-04-12T04:51:30;1.70;99.90
5276;DHT22;2661;50.786;12.728;2023-04-12T04:53:57;1.80;99.90
5276;DHT22;2661;50.786;12.728;2023-04-12T04:56:24;1.90;99.90
5276;DHT22;2661;50.786;12.728;2023-04-12T04:58:50;2.00;99.90
5276;DHT22;2661;50.786;12.728;2023-04-12T05:01:18;2.10;99.90
5276;DHT22;2661;50.786;12.728;2023-04-12T05:03:44;2.20;99.90
5276;DHT22;2661;50.786;12.728;2023-04-12T05:06:11;2.30;99.90
5276;DHT22;2661;50.786;12.728;2023-04-12T05:08:38;2.40;99.90
5276;DHT22;2661;50.786;12.728;2023-04-12T05:11:04;2.50;99.90
5276;DHT22;2661;50.786;12.728;2023-04-12T05:13:31;2.50;99.90
5276;DHT22;2661;50.786;12.728;2023-04-12T05:15:58;2.60;99.90
5276;DHT22;2661;50.786;12.728;2023-04-12T05:18:24;2.70;99.90
5276;DHT22;2661;50.786;12.728;2023-04-12T05:20:51;2.70;99.90
5276;DHT22;2661;50.786;12.728;2023-04-12T05:23:18;2.70;99.90
5276;DHT22;2661;50.786;12.728;2023-04-12T05:25:45;2.80;99.90
5276;DHT22;2661;50.786;12.728;2023-04-12T05:28:13;2.90;99.90
5276;DHT22;2661;50.786;12.728;2023-04-12T05:30:41;3.00;99.90
5276;DHT22;2661;50.786;12.728;2023-04-12T05:33:07;3.20;99.90
5276;DHT22;2661;50.786;12.728;2023-04-12T05:35:34;3.40;99.90
5276;DHT22;2661;50.786;12.728;2023-04-12T05:38:00;3.50;99.90
5276;DHT22;2661;50.786;12.728;2023-04-12T05:40:28;3.60;99.90
5276;DHT22;2661;50.786;12.728;2023-04-12T05:42:58;3.70;99.90
5276;DHT22;2661;50.786;12.728;2023-04-12T05:45:25;3.70;99.90
5276;DHT22;2661;50.786;12.728;2023-04-12T05:47:52;3.90;99.90
5276;DHT22;2661;50.786;12.728;2023-04-12T05:50:18;4.00;99.90
5276;DHT22;2661;50.786;12.728;2023-04-12T05:52:46;4.10;99.90
5276;DHT22;2661;50.786;12.728;2023-04-12T05:55:15;4.10;99.90
5276;DHT22;2661;50.786;12.728;2023-04-12T05:57:44;4.20;99.90
5276;DHT22;2661;50.786;12.728;2023-04-12T06:00:11;4.20;99.90
5276;DHT22;2661;50.786;12.728;2023-04-12T06:02:39;4.30;99.90
5276;DHT22;2661;50.786;12.728;2023-04-12T06:05:06;4.40;99.90
5276;DHT22;2661;50.786;12.728;2023-04-12T06:07:33;4.50;99.90
5276;DHT22;2661;50.786;12.728;2023-04-12T06:10:00;4.50;99.90
5276;DHT22;2661;50.786;12.728;2023-04-12T06:12:26;4.60;99.90
5276;DHT22;2661;50.786;12.728;2023-04-12T06:14:53;4.60;99.90
5276;DHT22;2661;50.786;12.728;2023-04-12T06:17:19;4.60;99.90
5276;DHT22;2661;50.786;12.728;2023-04-12T06:19:46;4.70;99.90
5276;DHT22;2661;50.786;12.728;2023-04-12T06:22:13;4.80;99.90
5276;DHT22;2661;50.786;12.728;2023-04-12T06:24:40;4.90;99.90
5276;DHT22;2661;50.786;12.728;2023-04-12T06:27:07;5.00;99.90
5276;DHT22;2661;50.786;12.728;2023-04-12T06:29:33;5.10;99.90
5276;DHT22;2661;50.786;12.728;2023-04-12T06:32:00;5.10;99.90
5276;DHT22;2661;50.786;12.728;2023-04-12T06:34:27;5.20;99.90
5276;DHT22;2661;50.786;12.728;2023-04-12T06:36:53;5.30;99.90
5276;DHT22;2661;50.786;12.728;2023-04-12T06:39:20;5.40;99.90
5276;DHT22;2661;50.786;12.728;2023-04-12T06:41:47;5.50;99.90
5276;DHT22;2661;50.786;12.728;2023-04-12T06:44:15;5.60;99.90
5276;DHT22;2661;50.786;12.728;2023-04-12T06:46:42;5.70;99.90
5276;DHT22;2661;50.786;12.728;2023-04-12T06:49:08;5.80;99.90
5276;DHT22;2661;50.786;12.728;2023-04-12T06:51:36;6.00;99.90
5276;DHT22;2661;50.786;12.728;2023-04-12T06:54:02;6.20;99.90
5276;DHT22;2661;50.786;12.728;2023-04-12T06:56:29;6.30;99.90
5276;DHT22;2661;50.786;12.728;2023-04-12T06:58:56;6.50;99.90
5276;DHT22;2661;50.786;12.728;2023-04-12T07:01:24;6.90;99.90
5276;DHT22;2661;50.786;12.728;2023-04-12T07:03:51;7.10;99.90
5276;DHT22;2661;50.786;12.728;2023-04-12T07:06:18;7.20;99.90
5276;DHT22;2661;50.786;12.728;2023-04-12T07:08:51;7.30;99.90
5276;DHT22;2661;50.786;12.728;2023-04-12T07:11:18;7.40;99.90
5276;DHT22;2661;50.786;12.728;2023-04-12T07:13:48;7.50;99.90
5276;DHT22;2661;50.786;12.728;2023-04-12T07:16:15;7.60;99.90
5276;DHT22;2661;50.786;12.728;2023-04-12T07:18:42;7.60;99.90
5276;DHT22;2661;50.786;12.728;2023-04-12T07:21:08;7.70;99.90
5276;DHT22;2661;50.786;12.728;2023-04-12T07:23:39;7.70;99.90
5276;DHT22;2661;50.786;12.728;2023-04-12T07:26:06;7.80;99.90
5276;DHT22;2661;50.786;12.728;2023-04-12T07:28:32;7.90;99.90
5276;DHT22;2661;50.786;12.728;2023-04-12T07:31:03;8.00;99.90
5276;DHT22;2661;50.786;12.728;2023-04-12T07:33:30;8.00;99.90
5276;DHT22;2661;50.786;12.728;2023-04-12T07:35:57;8.20;99.90
5276;DHT22;2661;50.786;12.728;2023-04-12T07:38:24;8.20;99.90
5276;DHT22;2661;50.786;12.728;2023-04-12T07:40:51;8.20;99.90
5276;DHT22;2661;50.786;12.728;2023-04-12T07:43:18;8.20;99.90
5276;DHT22;2661;50.786;12.728;2023-04-12T07:45:44;8.30;99.90
5276;DHT22;2661;50.786;12.728;2023-04-12T07:48:12;8.40;99.90
5276;DHT22;2661;50.786;12.728;2023-04-12T07:50:39;8.50;99.90
5276;DHT22;2661;50.786;12.728;2023-04-12T07:53:20;8.50;99.90
5276;DHT22;2661;50.786;12.728;2023-04-12T07:55:47;8.60;99.90
5276;DHT22;2661;50.786;12.728;2023-04-12T07:58:14;8.60;99.90
5276;DHT22;2661;50.786;12.728;2023-04-12T08:00:40;8.60;99.90
5276;DHT22;2661;50.786;12.728;2023-04-12T08:03:07;8.70;99.90
5276;DHT22;2661;50.786;12.728;2023-04-12T08:05:35;8.70;99.90
5276;DHT22;2661;50.786;12.728;2023-04-12T08:08:02;8.70;99.90
5276;DHT22;2661;50.786;12.728;2023-04-12T08:10:29;8.70;99.90
5276;DHT22;2661;50.786;12.728;2023-04-12T08:12:56;8.80;99.90
5276;DHT22;2661;50.786;12.728;2023-04-12T08:15:23;8.90;99.90
5276;DHT22;2661;50.786;12.728;2023-04-12T08:17:50;9.00;99.90
5276;DHT22;2661;50.786;12.728;2023-04-12T08:20:17;9.10;99.90
5276;DHT22;2661;50.786;12.728;2023-04-12T08:22:44;9.30;99.90
5276;DHT22;2661;50.786;12.728;2023-04-12T08:25:10;9.40;99.90
5276;DHT22;2661;50.786;12.728;2023-04-12T08:27:40;9.50;99.90
5276;DHT22;2661;50.786;12.728;2023-04-12T08:30:07;9.50;99.90
5276;DHT22;2661;50.786;12.728;2023-04-12T08:32:35;9.60;99.90
5276;DHT22;2661;50.786;12.728;2023-04-12T08:35:03;9.60;99.90
5276;DHT22;2661;50.786;12.728;2023-04-12T08:37:30;9.60;99.90
5276;DHT22;2661;50.786;12.728;2023-04-12T08:40:01;9.60;99.90
5276;DHT22;2661;50.786;12.728;2023-04-12T08:42:30;9.80;99.90
5276;DHT22;2661;50.786;12.728;2023-04-12T08:44:57;9.80;99.90
5276;DHT22;2661;50.786;12.728;2023-04-12T08:47:23;9.80;99.90
5276;DHT22;2661;50.786;12.728;2023-04-12T08:49:50;9.80;99.90
5276;DHT22;2661;50.786;12.728;2023-04-12T08:52:17;9.80;99.90
5276;DHT22;2661;50.786;12.728;2023-04-12T08:54:44;9.80;99.90
5276;DHT22;2661;50.786;12.728;2023-04-12T08:57:10;9.90;99.90
5276;DHT22;2661;50.786;12.728;2023-04-12T08:59:38;10.10;99.90
5276;DHT22;2661;50.786;12.728;2023-04-12T09:02:07;10.20;99.90
5276;DHT22;2661;50.786;12.728;2023-04-12T09:04:45;10.20;99.90
5276;DHT22;2661;50.786;12.728;2023-04-12T09:07:12;10.20;99.90
5276;DHT22;2661;50.786;12.728;2023-04-12T09:09:39;10.20;99.90
5276;DHT22;2661;50.786;12.728;2023-04-12T09:12:06;10.20;99.90
5276;DHT22;2661;50.786;12.728;2023-04-12T09:14:33;10.20;99.90
5276;DHT22;2661;50.786;12.728;2023-04-12T09:16:59;10.20;99.90
5276;DHT22;2661;50.786;12.728;2023-04-12T09:19:29;10.30;99.90
5276;DHT22;2661;50.786;12.728;2023-04-12T09:21:57;10.50;99.90
5276;DHT22;2661;50.786;12.728;2023-04-12T09:24:23;10.60;99.90
5276;DHT22;2661;50.786;12.728;2023-04-12T09:26:59;10.80;99.90
5276;DHT22;2661;50.786;12.728;2023-04-12T09:29:27;10.90;99.90
5276;DHT22;2661;50.786;12.728;2023-04-12T09:31:54;11.00;99.90
5276;DHT22;2661;50.786;12.728;2023-04-12T09:34:21;10.90;99.90
5276;DHT22;2661;50.786;12.728;2023-04-12T09:36:47;10.90;99.90
5276;DHT22;2661;50.786;12.728;2023-04-12T09:39:14;10.80;99.90
5276;DHT22;2661;50.786;12.728;2023-04-12T09:41:40;10.70;99.90
5276;DHT22;2661;50.786;12.728;2023-04-12T09:44:07;10.80;99.90
5276;DHT22;2661;50.786;12.728;2023-04-12T09:46:33;10.90;99.90
5276;DHT22;2661;50.786;12.728;2023-04-12T09:49:00;11.10;99.90
5276;DHT22;2661;50.786;12.728;2023-04-12T09:51:31;11.30;99.90
5276;DHT22;2661;50.786;12.728;2023-04-12T09:54:02;11.50;99.90
5276;DHT22;2661;50.786;12.728;2023-04-12T09:56:29;11.50;99.90
5276;DHT22;2661;50.786;12.728;2023-04-12T09:59:01;11.60;99.90
5276;DHT22;2661;50.786;12.728;2023-04-12T10:01:28;11.60;99.90
5276;DHT22;2661;50.786;12.728;2023-04-12T10:03:55;11.60;99.90
5276;DHT22;2661;50.786;12.728;2023-04-12T10:06:23;11.60;99.90
5276;DHT22;2661;50.786;12.728;2023-04-12T10:08:52;11.70;99.90
5276;DHT22;2661;50.786;12.728;2023-04-12T10:11:19;11.70;99.90
5276;DHT22;2661;50.786;12.728;2023-04-12T10:13:45;11.70;99.90
5276;DHT22;2661;50.786;12.728;2023-04-12T10:16:13;11.90;99.90
5276;DHT22;2661;50.786;12.728;2023-04-12T10:18:41;12.00;99.90
5276;DHT22;2661;50.786;12.728;2023-04-12T10:21:08;12.00;99.90
5276;DHT22;2661;50.786;12.728;2023-04-12T10:23:34;12.20;99.90
5276;DHT22;2661;50.786;12.728;2023-04-12T10:26:01;12.20;99.90
5276;DHT22;2661;50.786;12.728;2023-04-12T10:28:29;12.40;99.90
5276;DHT22;2661;50.786;12.728;2023-04-12T10:30:56;12.30;99.90
5276;DHT22;2661;50.786;12.728;2023-04-12T10:33:26;12.30;99.90
5276;DHT22;2661;50.786;12.728;2023-04-12T10:38:20;12.10;99.90
5276;DHT22;2661;50.786;12.728;2023-04-12T10:43:34;12.40;99.90
5276;DHT22;2661;50.786;12.728;2023-04-12T10:46:01;12.50;99.90
5276;DHT22;2661;50.786;12.728;2023-04-12T10:48:39;12.60;99.90
5276;DHT22;2661;50.786;12.728;2023-04-12T10:51:13;12.60;99.90
5276;DHT22;2661;50.786;12.728;2023-04-12T10:53:40;12.40;99.90
5276;DHT22;2661;50.786;12.728;2023-04-12T11:01:18;12.50;99.90
5276;DHT22;2661;50.786;12.728;2023-04-12T11:06:41;12.80;99.90
5276;DHT22;2661;50.786;12.728;2023-04-12T11:09:27;12.80;99.90
5276;DHT22;2661;50.786;12.728;2023-04-12T11:12:09;12.80;99.90
5276;DHT22;2661;50.786;12.728;2023-04-12T11:14:47;12.60;99.90
5276;DHT22;2661;50.786;12.728;2023-04-12T11:19:51;12.30;99.90
5276;DHT22;2661;50.786;12.728;2023-04-12T11:22:19;12.30;99.90
5276;DHT22;2661;50.786;12.728;2023-04-12T11:24:47;12.30;99.90
5276;DHT22;2661;50.786;12.728;2023-04-12T11:27:13;12.20;99.90
5276;DHT22;2661;50.786;12.728;2023-04-12T11:29:42;12.20;99.90
5276;DHT22;2661;50.786;12.728;2023-04-12T11:32:09;12.20;99.90
5276;DHT22;2661;50.786;12.728;2023-04-12T11:34:37;12.30;99.90
5276;DHT22;2661;50.786;12.728;2023-04-12T11:37:04;12.40;99.90
5276;DHT22;2661;50.786;12.728;2023-04-12T11:39:34;12.40;99.90
5276;DHT22;2661;50.786;12.728;2023-04-12T11:42:01;12.50;99.90
5276;DHT22;2661;50.786;12.728;2023-04-12T11:44:33;12.50;99.90
5276;DHT22;2661;50.786;12.728;2023-04-12T11:47:22;12.60;99.90
5276;DHT22;2661;50.786;12.728;2023-04-12T11:49:50;12.60;99.90
5276;DHT22;2661;50.786;12.728;2023-04-12T11:52:17;12.60;99.90
5276;DHT22;2661;50.786;12.728;2023-04-12T11:54:48;12.70;99.90
5276;DHT22;2661;50.786;12.728;2023-04-12T11:57:16;12.70;99.90
5276;DHT22;2661;50.786;12.728;2023-04-12T11:59:44;12.70;99.90
5276;DHT22;2661;50.786;12.728;2023-04-12T12:02:11;12.60;99.90
5276;DHT22;2661;50.786;12.728;2023-04-12T12:04:49;12.50;99.90
5276;DHT22;2661;50.786;12.728;2023-04-12T12:07:17;12.30;99.90
5276;DHT22;2661;50.786;12.728;2023-04-12T12:09:44;12.20;99.90
5276;DHT22;2661;50.786;12.728;2023-04-12T12:12:12;12.10;99.90
5276;DHT22;2661;50.786;12.728;2023-04-12T12:14:39;11.90;99.90
5276;DHT22;2661;50.786;12.728;2023-04-12T12:17:10;11.80;99.90
5276;DHT22;2661;50.786;12.728;2023-04-12T12:19:37;11.70;99.90
5276;DHT22;2661;50.786;12.728;2023-04-12T12:24:38;11.50;99.90
5276;DHT22;2661;50.786;12.728;2023-04-12T12:27:09;11.40;99.90
5276;DHT22;2661;50.786;12.728;2023-04-12T12:29:36;11.30;99.90
5276;DHT22;2661;50.786;12.728;2023-04-12T12:32:10;11.40;99.90
5276;DHT22;2661;50.786;12.728;2023-04-12T12:34:37;11.50;99.90
5276;DHT22;2661;50.786;12.728;2023-04-12T12:37:06;11.30;99.90
5276;DHT22;2661;50.786;12.728;2023-04-12T12:39:32;11.50;99.90
5276;DHT22;2661;50.786;12.728;2023-04-12T12:41:59;11.50;99.90
5276;DHT22;2661;50.786;12.728;2023-04-12T12:44:27;11.50;99.90
5276;DHT22;2661;50.786;12.728;2023-04-12T12:46:53;11.50;99.90
5276;DHT22;2661;50.786;12.728;2023-04-12T12:49:35;11.50;99.90
5276;DHT22;2661;50.786;12.728;2023-04-12T12:52:01;11.50;99.90
5276;DHT22;2661;50.786;12.728;2023-04-12T12:54:28;11.40;99.90
5276;DHT22;2661;50.786;12.728;2023-04-12T12:57:07;11.30;99.90
5276;DHT22;2661;50.786;12.728;2023-04-12T12:59:33;11.20;99.90
5276;DHT22;2661;50.786;12.728;2023-04-12T13:02:00;11.20;99.90
5276;DHT22;2661;50.786;12.728;2023-04-12T13:04:27;11.10;99.90
5276;DHT22;2661;50.786;12.728;2023-04-12T13:06:54;11.00;99.90
5276;DHT22;2661;50.786;12.728;2023-04-12T13:09:21;10.80;99.90
5276;DHT22;2661;50.786;12.728;2023-04-12T13:11:47;10.90;99.90
5276;DHT22;2661;50.786;12.728;2023-04-12T13:14:14;10.80;99.90
5276;DHT22;2661;50.786;12.728;2023-04-12T13:16:40;10.80;99.90
5276;DHT22;2661;50.786;12.728;2023-04-12T13:19:07;10.80;99.90
5276;DHT22;2661;50.786;12.728;2023-04-12T13:21:33;10.90;99.90
5276;DHT22;2661;50.786;12.728;2023-04-12T13:24:00;10.80;99.90
5276;DHT22;2661;50.786;12.728;2023-04-12T13:26:27;10.70;99.90
5276;DHT22;2661;50.786;12.728;2023-04-12T13:28:53;10.60;99.90
5276;DHT22;2661;50.786;12.728;2023-04-12T13:31:20;10.50;99.90
5276;DHT22;2661;50.786;12.728;2023-04-12T13:33:46;10.40;99.90
5276;DHT22;2661;50.786;12.728;2023-04-12T13:36:13;10.50;99.90
5276;DHT22;2661;50.786;12.728;2023-04-12T13:38:39;10.30;99.90
5276;DHT22;2661;50.786;12.728;2023-04-12T13:41:06;10.30;99.90
5276;DHT22;2661;50.786;12.728;2023-04-12T13:43:33;10.30;99.90
5276;DHT22;2661;50.786;12.728;2023-04-12T13:45:59;10.30;99.90
5276;DHT22;2661;50.786;12.728;2023-04-12T13:48:26;10.20;99.90
5276;DHT22;2661;50.786;12.728;2023-04-12T13:50:52;10.10;99.90
5276;DHT22;2661;50.786;12.728;2023-04-12T13:53:21;10.10;99.90
5276;DHT22;2661;50.786;12.728;2023-04-12T13:55:47;10.00;99.90
5276;DHT22;2661;50.786;12.728;2023-04-12T13:58:15;10.00;99.90
5276;DHT22;2661;50.786;12.728;2023-04-12T14:00:43;9.90;99.90
5276;DHT22;2661;50.786;12.728;2023-04-12T14:03:10;9.90;99.90
5276;DHT22;2661;50.786;12.728;2023-04-12T14:05:37;9.90;99.90
5276;DHT22;2661;50.786;12.728;2023-04-12T14:08:03;10.10;99.90
5276;DHT22;2661;50.786;12.728;2023-04-12T14:10:30;10.00;99.90
5276;DHT22;2661;50.786;12.728;2023-04-12T14:12:56;10.10;99.90
5276;DHT22;2661;50.786;12.728;2023-04-12T14:15:23;10.10;99.90
5276;DHT22;2661;50.786;12.728;2023-04-12T14:17:49;10.20;99.90
5276;DHT22;2661;50.786;12.728;2023-04-12T14:20:16;10.20;99.90
5276;DHT22;2661;50.786;12.728;2023-04-12T14:22:45;10.10;99.90
5276;DHT22;2661;50.786;12.728;2023-04-12T14:25:11;10.00;99.90
5276;DHT22;2661;50.786;12.728;2023-04-12T14:27:38;9.90;99.90
5276;DHT22;2661;50.786;12.728;2023-04-12T14:30:04;10.00;99.90
5276;DHT22;2661;50.786;12.728;2023-04-12T14:32:32;10.00;99.90
5276;DHT22;2661;50.786;12.728;2023-04-12T14:34:59;10.00;99.90
5276;DHT22;2661;50.786;12.728;2023-04-12T14:37:26;10.00;99.90
5276;DHT22;2661;50.786;12.728;2023-04-12T14:39:53;10.10;99.90
5276;DHT22;2661;50.786;12.728;2023-04-12T14:42:19;10.10;99.90
5276;DHT22;2661;50.786;12.728;2023-04-12T14:44:46;10.20;99.90
5276;DHT22;2661;50.786;12.728;2023-04-12T14:47:13;10.10;99.90
5276;DHT22;2661;50.786;12.728;2023-04-12T14:49:39;10.10;99.90
5276;DHT22;2661;50.786;12.728;2023-04-12T14:52:06;10.10;99.90
5276;DHT22;2661;50.786;12.728;2023-04-12T14:54:33;10.00;99.90
5276;DHT22;2661;50.786;12.728;2023-04-12T14:56:59;10.00;99.90
5276;DHT22;2661;50.786;12.728;2023-04-12T14:59:26;9.90;99.90
5276;DHT22;2661;50.786;12.728;2023-04-12T15:01:53;9.90;99.90
5276;DHT22;2661;50.786;12.728;2023-04-12T15:04:19;9.80;99.90
5276;DHT22;2661;50.786;12.728;2023-04-12T15:06:46;9.80;99.90
5276;DHT22;2661;50.786;12.728;2023-04-12T15:09:13;9.80;99.90
5276;DHT22;2661;50.786;12.728;2023-04-12T15:11:41;9.80;99.90
5276;DHT22;2661;50.786;12.728;2023-04-12T15:14:12;9.70;99.90
5276;DHT22;2661;50.786;12.728;2023-04-12T15:16:46;9.70;99.90
5276;DHT22;2661;50.786;12.728;2023-04-12T15:19:14;9.80;99.90
5276;DHT22;2661;50.786;12.728;2023-04-12T15:21:47;9.70;99.90
5276;DHT22;2661;50.786;12.728;2023-04-12T15:24:19;9.70;99.90
5276;DHT22;2661;50.786;12.728;2023-04-12T15:26:47;9.70;99.90
5276;DHT22;2661;50.786;12.728;2023-04-12T15:29:14;9.70;99.90
5276;DHT22;2661;50.786;12.728;2023-04-12T15:31:42;9.70;99.90
5276;DHT22;2661;50.786;12.728;2023-04-12T15:34:09;9.80;99.90
5276;DHT22;2661;50.786;12.728;2023-04-12T15:36:35;9.80;99.90
5276;DHT22;2661;50.786;12.728;2023-04-12T15:39:02;9.80;99.90
5276;DHT22;2661;50.786;12.728;2023-04-12T15:41:33;9.90;99.90
5276;DHT22;2661;50.786;12.728;2023-04-12T15:44:03;10.00;99.90
5276;DHT22;2661;50.786;12.728;2023-04-12T15:46:29;9.90;99.90
5276;DHT22;2661;50.786;12.728;2023-04-12T15:48:56;10.00;99.90
5276;DHT22;2661;50.786;12.728;2023-04-12T15:51:23;9.90;99.90
5276;DHT22;2661;50.786;12.728;2023-04-12T15:53:50;9.90;99.90
5276;DHT22;2661;50.786;12.728;2023-04-12T15:56:16;9.90;99.90
5276;DHT22;2661;50.786;12.728;2023-04-12T15:58:49;9.90;99.90
5276;DHT22;2661;50.786;12.728;2023-04-12T16:01:17;9.90;99.90
5276;DHT22;2661;50.786;12.728;2023-04-12T16:03:44;9.80;99.90
5276;DHT22;2661;50.786;12.728;2023-04-12T16:06:14;9.90;99.90
5276;DHT22;2661;50.786;12.728;2023-04-12T16:08:48;9.90;99.90
5276;DHT22;2661;50.786;12.728;2023-04-12T16:11:15;10.00;99.90
5276;DHT22;2661;50.786;12.728;2023-04-12T16:13:42;10.00;99.90
5276;DHT22;2661;50.786;12.728;2023-04-12T16:16:14;10.00;99.90
5276;DHT22;2661;50.786;12.728;2023-04-12T16:18:43;10.00;99.90
5276;DHT22;2661;50.786;12.728;2023-04-12T16:21:10;10.00;99.90
5276;DHT22;2661;50.786;12.728;2023-04-12T16:23:38;10.10;99.90